AirNav   ProFlight Series 2 Aviation Headset
 
 1332 users online  

8FA5 Sacred Heart Hospital On the Gulf Heliport
Port St. Joe, Florida, USA

GOING TO PORT ST. JOE?


FAA INFORMATION EFFECTIVE 16 JULY 2020

Location

FAA Identifier: 8FA5
Lat/Long: 29-46-42.1600N 085-17-19.9700W
29-46.702667N 085-17.332833W
29.7783778,-85.2888806
(estimated)
Elevation: 15 ft. / 5 m (estimated)
From city: 2 miles SE of PORT ST. JOE, FL
Time zone: UTC -4 (UTC -5 during Standard Time)
Zip code: 32456

Heliport Operations

Heliport use: Private use. Permission required prior to landing
Activation date: 02/2010
Control tower: no
ARTCC: JACKSONVILLE CENTER
FSS: GAINESVILLE FLIGHT SERVICE STATION
Attendance: 0700-0700
Wind indicator: lighted
Segmented circle: no
Lights: SS-SR
Beacon: white-green-yellow (heliport)

Heliport Communications

WX ASOS at AAF (14 nm E): 119.925 (850-653-1229)

Nearby radio navigation aids

NDB name  Hdg/Dist  Freq  Var  ID
APALACHICOLA287/14.034903WAAF .- .- ..-.

Heliport Services

Runway Information

Helipad H1

Dimensions: 50 x 50 ft. / 15 x 15 m
Surface: concrete, in good condition
Runway edge lights: PERI
Latitude: 29-46.702667N
Longitude: 085-17.332833W
Elevation: 15.0 ft.
Traffic pattern: leftleft
Markings: basic
Obstructions: bldg
29 FT BLDG 120 FT NE OF PAD; 340 FT TOWER 0.5 NM N OF PAD.

Heliport Ownership and Management from official FAA records

Ownership: Privately-owned
Owner: SACRED HEART HEALTH SYSTEMS INC
5151 N NINTH AVE
PENSACOLA, FL 32504
Phone 850-416-7000
Manager: SCOTT MC CORMICK
3801 E. HWY 98
PORT ST. JOE, FL 32456
Phone 850-229-5630

Additional Remarks

OWNER DESIRES ARPT NOT BE CHARTED.
FOR CD CTC TYNDALL APCH AT 850-283-2900 OR 850-283-3353, WHEN APCH CLSD CTC JACKSONVILLE ARTCC AT 904-845-1592.

Instrument Procedures

There are no published instrument procedures at 8FA5.

Some nearby airports with instrument procedures:

KAAF - Apalachicola Regional Airport-Cleve Randolph Field (14 nm E)
KPAM - Tyndall Air Force Base (23 nm NW)
KECP - Northwest Florida Beaches International Airport (44 nm NW)
KTLH - Tallahassee International Airport (61 nm NE)
2J9 - Quincy Municipal Airport (62 nm NE)
 
Loc | Ops | Rwys | IFR | FBO | Links
Com | Nav | Svcs | Stats | Notes

Continental Services
AirBoss

 
Aerial photo
No photo
 
Sectional chart

 
Airport distance calculator
Flying to Sacred Heart Hospital On the Gulf Heliport? Find the distance to fly.

From to 8FA5

Sunrise and sunset
Times for 07-Aug-2020
 Local
(UTC-4)
 Zulu
(UTC)
Morning civil twilight06:4010:40
Sunrise07:0611:06
Sunset20:2800:28
Evening civil twilight20:5300:53

Current date and time
Zulu (UTC)  07-Aug-2020 14:47:51
Local (UTC-4)  07-Aug-2020 10:47:51
 
METAR
KAAF 
14nm E 
071353Z AUTO 05003KT 10SM CLR 31/23 A3005 RMK AO2 SLP177 T03060233 TSNO
KTDR 
20nm NW 
071356Z AUTO 24003KT 10SM FEW029 32/24 A3006 RMK AO2 LTG DSNT E-S SLP183 T03150236 $
KPAM 
23nm NW 
071356Z AUTO 25004KT 10SM CLR 30/23 A3005 RMK AO2 SLP179 T03040230 $
TAF
KPAM 
23nm NW 
070025Z 0700/0801 22012KT 9999 FEW020 QNH2996INS BECMG 0710/0711 26006KT 9999 SCT020 QNH2997INS BECMG 0717/0718 22012KT 9999 FEW030 QNH3000INS TX32/0719Z TN26/0711Z LAST NO AMDS AFT 0701 NEXT 0711
NOTAMs
Click for the latest NOTAMs
NOTAMs are issued by the DoD/FAA and will open in a separate window not controlled by AirNav.

 

 
 

Would you like to see your business listed on this page?

 If your business provides an interesting product or service to pilots, flight crews, aircraft, or users of the Sacred Heart Hospital On the Gulf Heliport, you should consider listing it here.  To start the listing process, click on the button below
 
Add a business
 

Other Pages about Sacred Heart Hospital On the Gulf Heliport

Update a link
 
Copyright © AirNav, LLC. All rights reserved. Privacy Policy  Contact